Time;durP1;ratioP1;P1;durP2;ratioP2;P2;SDS_P1;SDS_P2;PMS_P1;PMS_P2;Temp;Humidity;BMP_temperature;BMP_pressure;BME280_temperature;BME280_humidity;BME280_pressure;Samples;Min_cycle;Max_cycle;Signal;HPM_P1;HPM_P2
2022/11/24 00:25:18;;;;;;;9.48;3.75;;;7.80;99.90;;;;;;6357922;22;20022;-96
2022/11/24 00:27:46;;;;;;;8.83;3.83;;;7.80;99.90;;;;;;6348643;22;20082;-92
2022/11/24 00:30:12;;;;;;;7.68;3.47;;;7.70;99.90;;;;;;6318763;22;20089;-95
2022/11/24 00:32:38;;;;;;;10.53;4.20;;;7.80;99.90;;;;;;6303735;22;20021;-93
2022/11/24 00:35:05;;;;;;;6.97;3.47;;;7.70;99.90;;;;;;6325641;22;20015;-88
2022/11/24 00:37:31;;;;;;;9.80;4.07;;;7.70;99.90;;;;;;6269511;22;20346;-94
2022/11/24 00:39:56;;;;;;;11.73;3.20;;;7.70;99.90;;;;;;6295625;22;20054;-88
2022/11/24 00:42:22;;;;;;;8.27;3.17;;;7.70;99.90;;;;;;6299910;22;20042;-90
2022/11/24 00:44:48;;;;;;;7.53;3.33;;;7.70;99.90;;;;;;6321504;22;20447;-90
2022/11/24 00:47:32;;;;;;;7.60;3.50;;;7.70;99.90;;;;;;6319537;22;20018;-88
2022/11/24 00:49:57;;;;;;;7.18;2.97;;;7.60;99.90;;;;;;6320760;22;20052;-95
2022/11/24 00:52:23;;;;;;;9.67;3.20;;;7.60;99.90;;;;;;6271855;22;20015;-96
2022/11/24 00:54:49;;;;;;;7.60;2.80;;;7.60;99.90;;;;;;6273203;22;20014;-90
2022/11/24 00:57:14;;;;;;;7.47;3.37;;;7.60;99.90;;;;;;6291760;22;20465;-87
2022/11/24 00:59:40;;;;;;;7.50;2.87;;;7.60;99.90;;;;;;6319564;22;20052;-87
2022/11/24 01:02:49;;;;;;;7.67;3.00;;;7.50;99.90;;;;;;6292312;22;20093;-89
2022/11/24 01:09:05;;;;;;;8.23;2.75;;;7.50;99.90;;;;;;6371567;22;20017;-92
2022/11/24 01:12:00;;;;;;;7.78;2.78;;;7.60;99.90;;;;;;6316483;22;20025;-88
2022/11/24 01:14:19;;;;;;;;;;;7.50;99.90;;;;;;6370513;22;20022;-91
2022/11/24 01:17:04;;;;;;;8.55;3.15;;;7.60;99.90;;;;;;6342633;22;19921;-89
2022/11/24 01:19:29;;;;;;;6.55;3.13;;;7.50;99.90;;;;;;6316160;22;20018;-90
2022/11/24 01:21:55;;;;;;;5.57;2.33;;;7.50;99.90;;;;;;6265070;22;20014;-90
2022/11/24 01:24:26;;;;;;;6.07;2.67;;;7.50;99.90;;;;;;6265521;22;20010;-88
2022/11/24 01:26:52;;;;;;;5.82;2.53;;;7.60;99.90;;;;;;6290632;22;20113;-86
2022/11/24 01:29:17;;;;;;;7.23;3.00;;;7.50;99.90;;;;;;6290763;22;20015;-91
2022/11/24 01:31:43;;;;;;;5.60;2.40;;;7.60;99.90;;;;;;6368991;22;20048;-88
2022/11/24 01:34:09;;;;;;;7.97;2.57;;;7.50;99.90;;;;;;6316934;22;20143;-88
2022/11/24 01:36:34;;;;;;;7.47;2.43;;;7.50;99.90;;;;;;6316781;22;20443;-93
2022/11/24 01:39:09;;;;;;;9.17;2.53;;;7.50;99.90;;;;;;6343625;22;20447;-87
2022/11/24 01:41:35;;;;;;;9.32;2.95;;;7.50;99.90;;;;;;6342265;22;20014;-92
2022/11/24 01:44:26;;;;;;;7.40;2.33;;;7.50;99.90;;;;;;6265474;22;20061;-87
2022/11/24 01:47:13;;;;;;;9.73;2.22;;;7.50;99.90;;;;;;6342653;22;20446;-87
2022/11/24 01:49:43;;;;;;;8.65;2.38;;;7.50;99.90;;;;;;6316884;22;20014;-89
2022/11/24 01:52:20;;;;;;;6.13;2.25;;;7.50;99.90;;;;;;6346676;22;20052;-87
2022/11/24 01:54:50;;;;;;;9.00;2.50;;;7.50;99.90;;;;;;6334402;22;20037;-87
2022/11/24 01:57:33;;;;;;;6.38;2.30;;;7.50;99.90;;;;;;6349304;22;20022;-86
2022/11/24 02:00:03;;;;;;;6.28;2.13;;;7.40;99.90;;;;;;6342957;22;20163;-89
2022/11/24 02:02:29;;;;;;;6.15;1.90;;;7.40;99.90;;;;;;6344580;22;20028;-88
2022/11/24 02:05:00;;;;;;;4.78;1.65;;;7.40;99.90;;;;;;6318777;22;20053;-89
2022/11/24 02:07:26;;;;;;;6.65;1.92;;;7.40;99.90;;;;;;6318764;22;20063;-89
2022/11/24 02:09:56;;;;;;;7.20;1.80;;;7.40;99.90;;;;;;6292666;22;20018;-91
2022/11/24 02:12:25;;;;;;;7.65;1.80;;;7.50;99.90;;;;;;6318402;22;20447;-87
2022/11/24 02:14:52;;;;;;;6.43;2.00;;;7.50;99.90;;;;;;6372053;22;20316;-87
2022/11/24 02:17:18;;;;;;;6.18;1.60;;;7.50;99.90;;;;;;6292552;22;20085;-88
2022/11/24 02:19:57;;;;;;;5.63;1.40;;;7.50;99.90;;;;;;6292534;22;20099;-88
2022/11/24 02:22:32;;;;;;;7.35;1.80;;;7.50;99.90;;;;;;6318055;22;20021;-88
2022/11/24 02:25:22;;;;;;;6.18;1.75;;;7.60;99.90;;;;;;6343960;22;20385;-94
2022/11/24 02:27:48;;;;;;;8.70;1.67;;;7.60;99.90;;;;;;6343582;22;20018;-88
2022/11/24 02:30:14;;;;;;;6.72;2.20;;;7.60;99.90;;;;;;6372097;22;20046;-88
2022/11/24 02:32:41;;;;;;;7.97;1.77;;;7.60;99.90;;;;;;6318469;22;20019;-89
2022/11/24 02:35:08;;;;;;;5.72;1.50;;;7.60;99.90;;;;;;6317875;22;20014;-88
2022/11/24 02:37:34;;;;;;;4.78;1.50;;;7.60;99.90;;;;;;6317943;22;20097;-92
2022/11/24 02:40:00;;;;;;;5.93;1.60;;;7.60;99.90;;;;;;6318313;22;20045;-91
2022/11/24 02:42:29;;;;;;;6.18;1.73;;;7.60;99.90;;;;;;6292340;22;20021;-88
2022/11/24 02:44:59;;;;;;;4.35;1.73;;;7.60;99.90;;;;;;6318468;22;20067;-89
2022/11/24 02:47:25;;;;;;;8.40;1.92;;;7.70;99.90;;;;;;6318386;22;20447;-90
2022/11/24 02:49:51;;;;;;;7.47;1.30;;;7.60;99.90;;;;;;6318469;22;20013;-89
2022/11/24 02:52:17;;;;;;;9.23;1.90;;;7.60;99.90;;;;;;6292659;22;20433;-90
2022/11/24 02:54:43;;;;;;;5.80;1.67;;;7.60;99.90;;;;;;6318378;22;20331;-90
2022/11/24 02:57:09;;;;;;;5.27;1.30;;;7.60;99.90;;;;;;6267109;22;20058;-91
2022/11/24 02:59:35;;;;;;;5.55;1.55;;;7.60;99.90;;;;;;6292703;22;20075;-91
2022/11/24 03:02:01;;;;;;;5.93;1.47;;;7.60;99.90;;;;;;6292400;22;20451;-90
2022/11/24 03:04:27;;;;;;;5.65;1.50;;;7.60;99.90;;;;;;6318490;22;20015;-89
2022/11/24 03:06:53;;;;;;;5.57;1.37;;;7.50;99.90;;;;;;6343964;22;20063;-89
2022/11/24 03:09:19;;;;;;;6.43;1.40;;;7.50;99.90;;;;;;6292239;22;20478;-89
2022/11/24 03:11:44;;;;;;;3.27;1.10;;;7.50;99.90;;;;;;6292032;22;20769;-88
2022/11/24 03:14:10;;;;;;;6.00;1.20;;;7.50;99.90;;;;;;6317972;22;20103;-89
2022/11/24 03:16:36;;;;;;;8.70;1.50;;;7.50;99.90;;;;;;6345907;22;20077;-89
2022/11/24 03:19:02;;;;;;;4.80;1.07;;;7.50;99.90;;;;;;6320491;22;20010;-93
2022/11/24 03:21:28;;;;;;;10.35;1.20;;;7.50;99.90;;;;;;6317928;22;20075;-89
2022/11/24 03:23:54;;;;;;;7.57;1.73;;;7.50;99.90;;;;;;6318258;22;20010;-89
2022/11/24 03:26:21;;;;;;;5.25;1.13;;;7.50;99.90;;;;;;6286518;22;20019;-89
2022/11/24 03:28:47;;;;;;;5.30;1.10;;;7.50;99.90;;;;;;6286961;22;20049;-90
2022/11/24 03:31:13;;;;;;;6.23;1.17;;;7.50;99.90;;;;;;6286609;22;20069;-90
2022/11/24 03:33:39;;;;;;;3.95;1.23;;;7.60;99.90;;;;;;6261452;22;20022;-88
2022/11/24 03:36:06;;;;;;;5.82;1.30;;;7.50;99.90;;;;;;6286513;22;20348;-88
2022/11/24 03:38:32;;;;;;;8.60;1.30;;;7.50;99.90;;;;;;6286164;22;20348;-89
2022/11/24 03:40:58;;;;;;;3.23;0.90;;;7.60;99.90;;;;;;6286293;22;20014;-92
2022/11/24 03:43:24;;;;;;;3.67;1.30;;;7.60;99.90;;;;;;6338225;22;20029;-89
2022/11/24 03:45:50;;;;;;;5.53;1.03;;;7.60;99.90;;;;;;6312322;22;20018;-90
2022/11/24 03:48:17;;;;;;;3.63;1.30;;;7.60;99.90;;;;;;6287282;22;20010;-90
2022/11/24 03:50:51;;;;;;;6.65;1.23;;;7.60;99.90;;;;;;6303347;22;20042;-88
2022/11/24 03:53:16;;;;;;;6.38;1.20;;;7.60;99.90;;;;;;6299789;22;20462;-90
2022/11/24 03:55:42;;;;;;;4.67;0.80;;;7.60;99.90;;;;;;6261258;22;20046;-91
2022/11/24 03:58:30;;;;;;;3.17;1.00;;;7.60;99.90;;;;;;6286572;22;20335;-88
2022/11/24 04:00:56;;;;;;;3.35;0.90;;;7.70;99.90;;;;;;6285971;22;20245;-89
2022/11/24 04:03:22;;;;;;;5.72;1.52;;;7.70;99.90;;;;;;6338056;22;20519;-88
2022/11/24 04:05:48;;;;;;;5.65;1.25;;;7.70;99.90;;;;;;6260919;22;20015;-88
2022/11/24 04:08:14;;;;;;;4.33;1.10;;;7.70;99.90;;;;;;6286206;22;20075;-87
2022/11/24 04:10:41;;;;;;;5.80;1.15;;;7.70;99.90;;;;;;6286098;22;20015;-88
2022/11/24 04:13:37;;;;;;;10.88;1.58;;;7.70;99.90;;;;;;6286438;22;20025;-88
2022/11/24 04:16:34;;;;;;;5.82;1.27;;;7.70;99.90;;;;;;6286151;22;20335;-89
2022/11/24 04:19:15;;;;;;;4.55;1.02;;;7.70;99.90;;;;;;6311939;22;20073;-87
2022/11/24 04:21:42;;;;;;;4.82;1.10;;;7.70;99.90;;;;;;6260477;22;20456;-89
2022/11/24 04:24:07;;;;;;;7.03;1.40;;;7.70;99.90;;;;;;6286158;22;20011;-92
2022/11/24 04:26:33;;;;;;;4.40;1.10;;;7.70;99.90;;;;;;6298708;22;20057;-89
2022/11/24 04:29:06;;;;;;;5.63;1.20;;;7.70;99.90;;;;;;6338065;22;20015;-90
2022/11/24 04:31:31;;;;;;;4.85;1.15;;;7.70;99.90;;;;;;6311591;22;20011;-92
2022/11/24 04:33:57;;;;;;;5.33;0.77;;;7.60;99.90;;;;;;6286347;22;20038;-90
2022/11/24 04:36:23;;;;;;;5.47;1.40;;;7.70;99.90;;;;;;6312470;22;20052;-89
2022/11/24 04:38:51;;;;;;;4.50;1.13;;;7.70;99.90;;;;;;6337915;22;20351;-90
2022/11/24 04:41:17;;;;;;;4.80;1.08;;;7.60;99.90;;;;;;6311683;22;20011;-89
2022/11/24 04:43:58;;;;;;;4.73;0.97;;;7.60;99.90;;;;;;6312399;22;20014;-88
2022/11/24 04:46:24;;;;;;;3.67;1.00;;;7.60;99.90;;;;;;6311923;22;20015;-92
2022/11/24 04:48:49;;;;;;;5.67;1.13;;;7.60;99.90;;;;;;6311896;22;20057;-89
2022/11/24 04:51:15;;;;;;;4.07;0.87;;;7.60;99.90;;;;;;6338155;22;20093;-90
2022/11/24 04:53:41;;;;;;;3.33;1.02;;;7.50;99.90;;;;;;6311730;22;20454;-89
2022/11/24 04:56:08;;;;;;;8.67;1.10;;;7.50;99.90;;;;;;6311741;22;20382;-90
2022/11/24 04:58:33;;;;;;;4.30;1.02;;;7.50;99.90;;;;;;6338164;22;20045;-91
2022/11/24 05:00:59;;;;;;;8.20;1.02;;;7.40;99.90;;;;;;6285826;22;20057;-89
2022/11/24 05:03:35;;;;;;;2.63;0.67;;;7.40;99.90;;;;;;6286265;22;20018;-88
2022/11/24 05:06:01;;;;;;;3.47;0.70;;;7.40;99.90;;;;;;6311325;22;20015;-88
2022/11/24 05:08:27;;;;;;;5.27;1.20;;;7.40;99.90;;;;;;6338140;22;20010;-88
2022/11/24 05:10:52;;;;;;;4.97;1.00;;;7.40;99.90;;;;;;6344229;22;20002;-86
2022/11/24 05:13:18;;;;;;;5.03;1.03;;;7.30;99.90;;;;;;6329482;22;20015;-90
2022/11/24 05:15:44;;;;;;;4.13;0.97;;;7.30;99.90;;;;;;6317334;22;20019;-93
2022/11/24 05:18:37;;;;;;;2.53;0.80;;;7.30;99.90;;;;;;6337869;22;20385;-87
2022/11/24 05:21:28;;;;;;;9.27;1.67;;;7.30;99.90;;;;;;6311722;22;20102;-89
2022/11/24 05:24:09;;;;;;;4.97;1.13;;;7.30;99.90;;;;;;6311768;22;20011;-88
2022/11/24 05:26:35;;;;;;;3.47;0.95;;;7.20;99.90;;;;;;6285298;22;20018;-89
2022/11/24 05:29:01;;;;;;;6.60;1.10;;;7.20;99.90;;;;;;6311631;22;20079;-89
2022/11/24 05:31:26;;;;;;;5.20;1.23;;;7.20;99.90;;;;;;6337906;22;20019;-90
2022/11/24 05:34:02;;;;;;;2.40;0.67;;;7.10;99.90;;;;;;6286409;22;20447;-95
2022/11/24 05:39:12;;;;;;;4.97;0.90;;;7.10;99.90;;;;;;6317756;22;20018;-90
2022/11/24 05:41:37;;;;;;;5.63;1.27;;;7.10;99.90;;;;;;6313217;22;20125;-91
2022/11/24 05:44:03;;;;;;;3.13;0.70;;;7.10;99.90;;;;;;6340081;22;20321;-90
2022/11/24 05:46:29;;;;;;;4.60;0.97;;;7.10;99.90;;;;;;6287956;22;20452;-92
2022/11/24 05:48:54;;;;;;;3.33;0.87;;;7.10;99.90;;;;;;6313362;22;20021;-88
2022/11/24 05:51:20;;;;;;;5.27;1.20;;;7.10;99.90;;;;;;6287781;22;20025;-94
2022/11/24 05:53:46;;;;;;;2.97;0.60;;;7.10;99.90;;;;;;6287908;22;20014;-89
2022/11/24 05:56:11;;;;;;;3.87;0.83;;;7.10;99.90;;;;;;6313681;22;20018;-88
2022/11/24 05:58:37;;;;;;;6.33;0.90;;;7.10;99.90;;;;;;6313294;22;20081;-94
2022/11/24 06:01:06;;;;;;;4.30;1.00;;;7.10;99.90;;;;;;6313354;22;20041;-89
2022/11/24 06:03:32;;;;;;;2.63;0.80;;;7.10;99.90;;;;;;6312807;22;20017;-90
2022/11/24 06:05:58;;;;;;;3.08;0.80;;;7.10;99.90;;;;;;6312818;22;20013;-89
2022/11/24 06:08:24;;;;;;;3.13;0.70;;;7.10;99.90;;;;;;6286272;22;20046;-90
2022/11/24 06:10:49;;;;;;;5.10;0.93;;;7.10;99.90;;;;;;6313357;22;20021;-91
2022/11/24 06:13:15;;;;;;;6.50;1.77;;;7.10;99.90;;;;;;6288078;22;20011;-90
2022/11/24 06:15:41;;;;;;;5.17;1.23;;;7.10;99.90;;;;;;6314061;22;20018;-93
2022/11/24 06:18:23;;;;;;;3.90;0.87;;;7.20;99.90;;;;;;6314348;22;20096;-88
2022/11/24 06:20:48;;;;;;;4.90;1.05;;;7.20;99.90;;;;;;6288043;22;20015;-91
2022/11/24 06:23:14;;;;;;;4.93;1.40;;;7.10;99.90;;;;;;6313782;22;20075;-92
2022/11/24 06:25:40;;;;;;;8.37;0.90;;;7.10;99.90;;;;;;6312666;22;20011;-93
2022/11/24 06:28:30;;;;;;;5.07;1.00;;;7.20;99.90;;;;;;6289918;22;20440;-93
2022/11/24 06:31:02;;;;;;;4.47;0.82;;;7.20;99.90;;;;;;6287869;22;20037;-94
2022/11/24 06:33:33;;;;;;;5.38;0.75;;;7.20;99.90;;;;;;6299327;22;20014;-93
2022/11/24 06:36:04;;;;;;;3.28;0.70;;;7.10;99.90;;;;;;6287442;22;20617;-95
2022/11/24 06:38:31;;;;;;;3.33;0.77;;;7.10;99.90;;;;;;6286347;22;20093;-94
2022/11/24 06:41:05;;;;;;;4.90;1.17;;;7.10;99.90;;;;;;6287773;22;20010;-93
2022/11/24 06:47:37;;;;;;;4.38;0.90;;;7.10;99.90;;;;;;6341073;22;20039;-94
2022/11/24 06:50:03;;;;;;;1.98;0.90;;;7.10;99.90;;;;;;6287806;22;20014;-95
2022/11/24 06:52:29;;;;;;;2.88;0.63;;;7.10;99.90;;;;;;6287245;22;20072;-95
2022/11/24 06:54:59;;;;;;;1.47;0.60;;;7.10;99.90;;;;;;6286605;22;20011;-93
2022/11/24 06:57:49;;;;;;;4.70;0.70;;;7.10;99.90;;;;;;6286710;22;20094;-93
2022/11/24 07:00:42;;;;;;;4.47;0.60;;;7.10;99.90;;;;;;6288082;22;20064;-96
2022/11/24 07:03:15;;;;;;;2.65;0.80;;;7.10;99.90;;;;;;6296748;22;20011;-90
2022/11/24 07:05:42;;;;;;;5.45;1.48;;;7.10;99.90;;;;;;6309429;22;20018;-93
2022/11/24 07:08:08;;;;;;;5.03;0.80;;;7.10;99.90;;;;;;6294613;22;20014;-89
2022/11/24 07:10:34;;;;;;;8.03;0.77;;;7.10;99.90;;;;;;6287456;22;20025;-91
2022/11/24 07:13:02;;;;;;;3.37;0.90;;;7.10;99.90;;;;;;6287453;22;20015;-93
2022/11/24 07:15:31;;;;;;;4.95;0.93;;;7.10;99.90;;;;;;6287069;22;20332;-95
2022/11/24 07:17:57;;;;;;;3.13;0.80;;;7.10;99.90;;;;;;6287289;22;20019;-92
2022/11/24 07:20:22;;;;;;;5.87;0.80;;;7.10;99.90;;;;;;6261946;22;20022;-92
2022/11/24 07:22:48;;;;;;;6.20;0.80;;;7.10;99.90;;;;;;6287029;22;20026;-91
2022/11/24 07:25:16;;;;;;;2.67;0.70;;;7.20;99.90;;;;;;6287933;22;20038;-93
2022/11/24 07:27:42;;;;;;;3.42;0.90;;;7.20;99.90;;;;;;6310644;22;20023;-93
2022/11/24 07:40:29;;;;;;;6.00;1.08;;;7.10;99.90;;;;;;6356054;22;20022;-91
2022/11/24 07:43:04;;;;;;;5.20;1.10;;;7.10;99.90;;;;;;6343971;22;20029;-92
2022/11/24 07:45:33;;;;;;;3.13;1.00;;;7.10;99.90;;;;;;6344037;22;20037;-91
2022/11/24 07:48:38;;;;;;;;;;;;;;;;;;;;;
2022/11/24 07:51:08;;;;;;;4.07;0.90;;;7.10;99.90;;;;;;6370840;22;20352;-91
2022/11/24 07:53:35;;;;;;;3.88;1.00;;;7.10;99.90;;;;;;6344248;22;20471;-91
2022/11/24 07:56:05;;;;;;;4.22;1.00;;;7.10;99.90;;;;;;6344861;22;20022;-92
2022/11/24 07:58:34;;;;;;;3.53;0.98;;;7.10;99.90;;;;;;6344012;22;20515;-90
2022/11/24 08:01:18;;;;;;;7.78;1.02;;;7.10;99.90;;;;;;6345593;22;20022;-90
2022/11/24 08:03:45;;;;;;;2.80;0.70;;;7.10;99.90;;;;;;6344987;22;20021;-92
2022/11/24 08:06:25;;;;;;;4.30;0.93;;;7.10;99.90;;;;;;6344065;22;20017;-90
2022/11/24 08:09:13;;;;;;;7.13;1.33;;;7.10;99.90;;;;;;6344103;22;20014;-90
2022/11/24 08:25:16;;;;;;;6.10;1.02;;;7.20;99.90;;;;;;6359473;22;20063;-92
2022/11/24 09:57:41;;;;;;;4.10;1.30;;;8.30;99.90;;;;;;6386463;22;20026;-90
2022/11/24 10:08:55;;;;;;;3.17;1.17;;;8.50;99.90;;;;;;6370326;22;20019;-88
2022/11/24 10:12:10;;;;;;;4.95;0.90;;;8.50;99.90;;;;;;6317191;22;20068;-92
2022/11/24 10:53:37;;;;;;;2.65;0.73;;;9.30;99.90;;;;;;6351897;22;20025;-93
2022/11/24 10:56:04;;;;;;;3.08;0.80;;;9.30;99.90;;;;;;6289494;22;20019;-88
2022/11/24 10:58:36;;;;;;;2.42;0.70;;;9.40;99.90;;;;;;6287486;22;20090;-90
2022/11/24 11:01:14;;;;;;;2.15;0.70;;;9.40;99.90;;;;;;6289549;22;20183;-89
2022/11/24 11:04:16;;;;;;;4.25;1.33;;;9.40;99.90;;;;;;6293474;22;20036;-90
2022/11/24 11:06:42;;;;;;;;;;;9.40;99.90;;;;;;6290781;22;20046;-89
2022/11/24 11:09:08;;;;;;;2.92;0.60;;;9.40;99.90;;;;;;6288012;22;20280;-94
2022/11/24 11:11:35;;;;;;;2.30;0.87;;;9.40;99.90;;;;;;6288918;22;20018;-88
2022/11/24 11:14:02;;;;;;;2.17;0.60;;;9.40;99.90;;;;;;6288946;22;20022;-88
2022/11/24 11:16:37;;;;;;;3.67;1.20;;;9.50;99.90;;;;;;6288109;22;20317;-88
2022/11/24 11:19:50;;;;;;;3.08;0.60;;;9.50;99.90;;;;;;6287528;22;20475;-90
2022/11/24 11:22:51;;;;;;;2.88;0.60;;;9.60;99.90;;;;;;6313218;22;20031;-88
2022/11/24 11:25:44;;;;;;;5.13;0.90;;;9.60;99.90;;;;;;6286153;22;20022;-88
2022/11/24 11:28:27;;;;;;;4.95;0.88;;;9.60;99.90;;;;;;6282510;22;20019;-89
2022/11/24 11:31:04;;;;;;;1.63;0.70;;;9.60;99.90;;;;;;6263036;22;20014;-89
2022/11/24 11:33:56;;;;;;;1.50;0.50;;;9.70;99.90;;;;;;6287462;22;20017;-90
2022/11/24 11:36:23;;;;;;;3.78;0.93;;;9.70;99.90;;;;;;6286898;22;20015;-89
2022/11/24 11:38:49;;;;;;;4.07;1.17;;;9.70;99.90;;;;;;6287887;22;20025;-89
2022/11/24 11:41:22;;;;;;;3.22;0.70;;;9.80;99.90;;;;;;6287083;22;20019;-90
2022/11/24 11:43:55;;;;;;;2.13;0.50;;;9.80;99.90;;;;;;6289078;22;20015;-87
2022/11/24 11:46:27;;;;;;;2.80;0.70;;;9.80;99.90;;;;;;6288639;22;20015;-87
2022/11/24 11:49:20;;;;;;;2.90;1.17;;;9.80;99.90;;;;;;6289520;22;20015;-90
2022/11/24 11:52:15;;;;;;;4.40;1.02;;;9.80;99.90;;;;;;6287544;22;20014;-89
2022/11/24 11:54:41;;;;;;;4.28;0.55;;;9.90;99.90;;;;;;6313080;22;20109;-89
2022/11/24 11:57:36;;;;;;;2.53;0.57;;;9.90;99.90;;;;;;6287379;22;20042;-88
2022/11/24 12:00:21;;;;;;;2.92;0.65;;;9.90;99.90;;;;;;6288089;22;20025;-88
2022/11/24 12:03:18;;;;;;;3.40;0.80;;;9.90;99.90;;;;;;6289552;22;20110;-88
2022/11/24 12:05:58;;;;;;;3.22;0.70;;;9.90;99.90;;;;;;6286356;22;20026;-87
2022/11/24 12:08:24;;;;;;;5.70;0.70;;;10.00;99.90;;;;;;6289222;22;20076;-86
2022/11/24 12:11:04;;;;;;;4.03;0.70;;;10.00;99.90;;;;;;6315395;22;20058;-95
2022/11/24 12:13:45;;;;;;;5.78;0.93;;;10.00;99.90;;;;;;6312122;22;20015;-89
2022/11/24 12:16:44;;;;;;;5.65;1.13;;;10.10;99.90;;;;;;6286895;22;20011;-86
2022/11/24 12:19:43;;;;;;;9.32;2.85;;;10.10;99.90;;;;;;6286783;22;20129;-87
2022/11/24 12:22:30;;;;;;;5.03;1.05;;;10.10;99.90;;;;;;6288309;22;20309;-88
2022/11/24 12:25:15;;;;;;;3.10;0.80;;;10.10;99.90;;;;;;6289074;22;20015;-87
2022/11/24 12:28:08;;;;;;;4.57;0.88;;;10.20;99.90;;;;;;6324513;22;20066;-86
2022/11/24 12:30:48;;;;;;;2.72;0.70;;;10.20;99.90;;;;;;6296335;22;20019;-92
2022/11/24 12:33:47;;;;;;;2.60;1.08;;;10.20;99.90;;;;;;6287739;22;20011;-89
2022/11/24 12:36:44;;;;;;;2.05;0.70;;;10.20;99.90;;;;;;6286326;22;20017;-88
2022/11/24 12:39:26;;;;;;;4.13;1.05;;;10.20;99.90;;;;;;6285980;22;20014;-87
2022/11/24 12:42:13;;;;;;;3.53;0.77;;;10.20;99.90;;;;;;6312338;22;20020;-86
2022/11/24 12:44:49;;;;;;;1.20;0.52;;;10.30;99.90;;;;;;6285890;22;20023;-88
2022/11/24 12:47:28;;;;;;;2.15;0.80;;;10.30;99.90;;;;;;6286645;22;20042;-88
2022/11/24 12:50:12;;;;;;;3.50;0.60;;;10.40;99.90;;;;;;6286340;22;20018;-88
2022/11/24 12:52:52;;;;;;;4.25;0.80;;;10.40;99.90;;;;;;6297249;22;20402;-87
2022/11/24 12:55:20;;;;;;;2.72;0.73;;;10.40;99.90;;;;;;6344426;22;20108;-89
2022/11/24 12:58:08;;;;;;;3.40;0.80;;;10.40;99.90;;;;;;6344291;22;20021;-89
2022/11/24 13:00:46;;;;;;;2.97;0.50;;;10.40;99.90;;;;;;6369627;22;20028;-92
2022/11/24 13:03:15;;;;;;;2.28;0.57;;;10.50;99.90;;;;;;6345148;22;20025;-91
2022/11/24 13:06:02;;;;;;;3.50;0.60;;;10.50;99.90;;;;;;6346152;22;20059;-88
2022/11/24 13:08:29;;;;;;;3.60;0.52;;;10.50;99.90;;;;;;6344988;22;20029;-87
2022/11/24 13:11:21;;;;;;;2.97;0.60;;;10.50;99.90;;;;;;6346701;22;20011;-95
2022/11/24 13:13:59;;;;;;;3.03;0.57;;;10.50;99.90;;;;;;6346118;22;20070;-89
2022/11/24 13:16:26;;;;;;;0.68;0.30;;;10.50;99.90;;;;;;6373065;22;20014;-90
2022/11/24 13:18:57;;;;;;;1.58;0.40;;;10.50;99.90;;;;;;6371361;22;20463;-94
2022/11/24 13:21:49;;;;;;;3.92;0.70;;;10.50;99.90;;;;;;6346697;22;20075;-96
2022/11/24 13:24:17;;;;;;;2.63;0.75;;;10.50;99.90;;;;;;6348123;22;20046;-89
2022/11/24 13:26:47;;;;;;;4.25;1.00;;;10.60;99.90;;;;;;6346029;22;20025;-87
2022/11/24 13:29:34;;;;;;;4.60;1.38;;;10.60;99.90;;;;;;6342806;22;20010;-88
2022/11/24 13:32:20;;;;;;;3.90;0.70;;;10.60;99.90;;;;;;6343740;22;20018;-89
2022/11/24 13:34:53;;;;;;;5.38;0.70;;;10.60;99.90;;;;;;6342572;22;20377;-89
2022/11/24 13:37:39;;;;;;;4.50;0.68;;;10.60;99.90;;;;;;6344482;22;20022;-90
2022/11/24 13:40:13;;;;;;;3.25;0.60;;;10.60;99.90;;;;;;6344712;22;20011;-89
2022/11/24 13:42:59;;;;;;;3.25;0.60;;;10.50;99.90;;;;;;6347408;22;20455;-91
2022/11/24 13:45:43;;;;;;;2.50;0.63;;;10.50;99.90;;;;;;6370367;22;20015;-90
2022/11/24 13:48:32;;;;;;;3.00;0.50;;;10.50;99.90;;;;;;6343037;22;20015;-88
2022/11/24 13:51:00;;;;;;;4.25;0.50;;;10.50;99.90;;;;;;6323563;22;20112;-89
2022/11/24 13:53:40;;;;;;;4.10;0.60;;;10.50;99.90;;;;;;6344327;22;20021;-88
2022/11/24 13:56:29;;;;;;;5.47;0.90;;;10.50;99.90;;;;;;6346008;22;20343;-89
2022/11/24 13:59:30;;;;;;;4.78;0.88;;;10.50;99.90;;;;;;6373912;22;20015;-92
2022/11/24 14:01:57;;;;;;;5.53;0.90;;;10.40;99.90;;;;;;6347117;22;20018;-89
2022/11/24 14:04:26;;;;;;;3.17;0.73;;;10.40;99.90;;;;;;6373911;22;20018;-93
2022/11/24 14:06:51;;;;;;;4.20;0.73;;;10.40;99.90;;;;;;6375400;22;20071;-86
2022/11/24 14:09:45;;;;;;;4.00;0.87;;;10.40;99.90;;;;;;6347238;22;20015;-89
2022/11/24 14:12:18;;;;;;;3.90;0.60;;;10.40;99.90;;;;;;6342287;22;20083;-87
2022/11/24 14:18:46;;;;;;;4.80;0.80;;;10.30;99.90;;;;;;6375582;22;20108;-87
2022/11/24 14:21:26;;;;;;;3.33;0.73;;;10.30;99.90;;;;;;6344146;22;20343;-90
2022/11/24 14:24:07;;;;;;;3.70;0.60;;;10.30;99.90;;;;;;6371723;22;20018;-95
2022/11/24 14:26:36;;;;;;;2.90;0.55;;;10.20;99.90;;;;;;6352044;22;20014;-90
2022/11/24 14:29:10;;;;;;;3.40;0.82;;;10.20;99.90;;;;;;6372770;22;20343;-87
2022/11/24 14:31:36;;;;;;;4.55;1.42;;;10.20;99.90;;;;;;6344549;22;20006;-92
2022/11/24 14:34:22;;;;;;;4.33;1.10;;;10.20;99.90;;;;;;6345776;22;20045;-90
2022/11/24 14:37:09;;;;;;;2.83;0.50;;;10.10;99.90;;;;;;6318583;22;20018;-89
2022/11/24 14:39:40;;;;;;;2.72;0.50;;;10.10;99.90;;;;;;6344386;22;20033;-94
2022/11/24 14:42:15;;;;;;;2.85;0.63;;;10.10;99.90;;;;;;6344282;22;20014;-95
2022/11/24 14:44:40;;;;;;;2.22;0.60;;;10.00;99.90;;;;;;6344160;22;20321;-89
2022/11/24 14:47:16;;;;;;;6.33;0.70;;;10.00;99.90;;;;;;6369503;22;20021;-87
2022/11/24 14:49:42;;;;;;;2.20;0.52;;;9.90;99.90;;;;;;6344216;22;20018;-88
2022/11/24 14:52:24;;;;;;;4.07;1.02;;;9.90;99.90;;;;;;6344429;22;20041;-89
2022/11/24 14:58:44;;;;;;;2.25;0.60;;;9.80;99.90;;;;;;6193943;23;20091;-89
2022/11/24 15:01:26;;;;;;;4.27;0.80;;;9.70;99.90;;;;;;6196683;22;20376;-89
2022/11/24 15:04:16;;;;;;;4.53;0.70;;;9.70;99.90;;;;;;6296324;22;20014;-89
2022/11/24 15:06:45;;;;;;;1.77;0.60;;;9.60;99.90;;;;;;6290562;22;20018;-90
2022/11/24 15:09:46;;;;;;;2.75;0.80;;;9.50;99.90;;;;;;6291919;22;20018;-89
2022/11/24 15:12:38;;;;;;;3.33;0.68;;;9.40;99.90;;;;;;6162855;22;20019;-89
2022/11/24 15:15:19;;;;;;;3.75;0.50;;;9.40;99.90;;;;;;6276026;22;20022;-89
2022/11/24 15:17:55;;;;;;;1.60;0.40;;;9.30;99.90;;;;;;6322322;22;20019;-89
2022/11/24 15:20:29;;;;;;;3.97;0.75;;;9.30;99.90;;;;;;6315333;22;20011;-89
2022/11/24 15:23:16;;;;;;;1.98;0.60;;;9.20;99.90;;;;;;6292266;22;20041;-89
2022/11/24 15:25:42;;;;;;;6.00;0.68;;;9.20;99.90;;;;;;6293059;22;20018;-88
2022/11/24 15:28:08;;;;;;;5.60;1.47;;;9.10;99.90;;;;;;6291402;22;20473;-89
2022/11/24 15:30:35;;;;;;;3.85;0.55;;;9.10;99.90;;;;;;6293672;22;20120;-89
2022/11/24 15:33:02;;;;;;;3.30;0.70;;;9.00;99.90;;;;;;6296432;22;20455;-89
2022/11/24 15:35:31;;;;;;;2.58;0.60;;;9.00;99.90;;;;;;6298220;22;20421;-90
2022/11/24 15:38:00;;;;;;;3.97;0.57;;;8.90;99.90;;;;;;6316878;22;20448;-89
2022/11/24 15:40:26;;;;;;;2.72;0.60;;;8.90;99.90;;;;;;6269807;22;20054;-88
2022/11/24 15:43:18;;;;;;;3.97;0.90;;;8.90;99.90;;;;;;6294289;22;20018;-89
2022/11/24 15:45:43;;;;;;;4.72;1.00;;;8.80;99.90;;;;;;6294435;22;20018;-89
2022/11/24 15:48:10;;;;;;;5.03;0.90;;;8.70;99.90;;;;;;6271770;22;20021;-89
2022/11/24 15:50:36;;;;;;;2.22;0.80;;;8.70;99.90;;;;;;6274819;22;20025;-88
2022/11/24 15:53:04;;;;;;;4.65;0.70;;;8.60;99.90;;;;;;6303120;22;20014;-89
2022/11/24 15:55:30;;;;;;;3.88;0.50;;;8.60;99.90;;;;;;6346904;22;20323;-89
2022/11/24 15:57:56;;;;;;;4.93;0.80;;;8.50;99.90;;;;;;6348951;22;20022;-89
2022/11/24 16:00:22;;;;;;;2.50;0.77;;;8.50;99.90;;;;;;6344142;22;20015;-89
2022/11/24 16:02:49;;;;;;;1.42;0.50;;;8.40;99.90;;;;;;6343805;22;20018;-89
2022/11/24 16:05:16;;;;;;;3.92;0.80;;;8.30;99.90;;;;;;6344094;22;20011;-89
2022/11/24 16:07:42;;;;;;;2.92;0.93;;;8.30;99.90;;;;;;6343844;22;20018;-89
2022/11/24 16:10:23;;;;;;;5.68;0.70;;;8.20;99.90;;;;;;6318423;22;20014;-89
2022/11/24 16:12:49;;;;;;;3.65;0.90;;;8.10;99.90;;;;;;6349190;22;20107;-88
2022/11/24 16:15:15;;;;;;;5.50;0.73;;;8.00;99.90;;;;;;6353368;22;20014;-89
2022/11/24 16:17:40;;;;;;;3.77;0.90;;;7.90;99.90;;;;;;6349041;22;20060;-89
2022/11/24 16:20:06;;;;;;;4.10;0.97;;;7.90;99.90;;;;;;6319678;22;20011;-88
2022/11/24 16:22:32;;;;;;;4.18;0.70;;;7.80;99.90;;;;;;6348075;22;20025;-89
2022/11/24 16:25:03;;;;;;;5.00;0.82;;;7.80;99.90;;;;;;6363595;22;20014;-87
2022/11/24 16:27:29;;;;;;;3.00;0.90;;;7.70;99.90;;;;;;6357445;22;20014;-89
2022/11/24 16:29:55;;;;;;;4.88;1.25;;;7.70;99.90;;;;;;6321773;22;20347;-89
2022/11/24 16:32:20;;;;;;;4.23;1.07;;;7.70;99.90;;;;;;6348899;22;20021;-89
2022/11/24 16:34:46;;;;;;;4.43;0.93;;;7.60;99.90;;;;;;6372651;22;20029;-89
2022/11/24 16:37:16;;;;;;;4.80;0.97;;;7.60;99.90;;;;;;6345569;22;20050;-88
2022/11/24 16:39:42;;;;;;;2.58;0.90;;;7.60;99.90;;;;;;6321481;22;20010;-88
2022/11/24 16:42:07;;;;;;;6.97;1.13;;;7.50;99.90;;;;;;6347173;22;20029;-89
2022/11/24 16:45:30;;;;;;;3.90;1.30;;;7.50;99.90;;;;;;6352107;22;20313;-89
2022/11/24 16:48:00;;;;;;;5.65;1.20;;;7.50;99.90;;;;;;6349692;22;20015;-88
2022/11/24 16:50:25;;;;;;;6.40;1.63;;;7.50;99.90;;;;;;6350026;22;20014;-88
2022/11/24 16:52:52;;;;;;;5.53;1.53;;;7.50;99.90;;;;;;6320510;22;20017;-89